Aurora, OR

9:21 AM PST on November 23, 2014 (GMT -0800)
Aurora State | Change Station
CLOSE
Current Station
Airport
Location: Aurora,
Elevation: 197 ft
Nearby Weather Stations

Elev 197 ft 45.25 °N, 122.77 °W | Updated 28 minutes ago

Clear
Clear
49 °F
Feels Like 49 °F
N
18
Wind Variable Wind from South
Gusts 26 mph

Today
High -- | Low -- °F
--% Chance of Precip.
Yesterday
High -- | Low -- °F
Precip. -- in
7:20 AM 4:34 PM
New Moon, 2% visible
Pressure 30.30 in
Visibility 10.0 miles
Clouds Few 6500 ft
Dew Point 44 °F
Humidity 83%
Rainfall 0.00 in
Snow Depth Not available.
UV 1 out of 12
Pollen .10 out of 12
Air Quality Not available.
Flu Activity Not available.
METAR KUAO 231653Z AUTO 19016G23KT 10SM FEW065 09/07 A3029 RMK AO2 SLP258 T00940067

More Conditions Fewer Conditions

Pressure 30.30 in
Visibility 10.0 miles
Clouds Few 6500 ft
Dew Point 44 °F
Humidity 83%
Rainfall 0.00 in
Snow Depth Not available.
UV 1 out of 12
Pollen .10 out of 12
Air Quality Not available.
Flu Activity Not available.
METAR KUAO 231653Z AUTO 19016G23KT 10SM FEW065 09/07 A3029 RMK AO2 SLP258 T00940067

More Conditions Fewer Conditions

10-Day Weather Forecast

Almanac

Astronomy

Nov. 23, 2014 Rise Set
Actual Time
Civil Twilight
Nautical Twilight
Astronomical Twilight
Moon
Length of Visible Light
Length of Day
Tomorrow will be .
, % of the Moon is Illuminated

Today's Extremes

State Highs State Lows

Community

WunderPhotos

Upload Photos

1,773,110 photos uploaded!

WunderBlogs® & News

Nearby

Air Quality

  Air Quality AQ Index Pollutant
Not available.

Snow Depth

Station Depth Elevation

Earthquake Activity

City Distance Mag. Time & Date
Minimum magnitude displayed is 2.5.

Coastal Water Temperatures

Place Temperature

Nearby Weather Stations